Time;durP1;ratioP1;P1;durP2;ratioP2;P2;SDS_P1;SDS_P2;PMS_P1;PMS_P2;Temp;Humidity;BMP_temperature;BMP_pressure;BME280_temperature;BME280_humidity;BME280_pressure;Samples;Min_cycle;Max_cycle;Signal;HPM_P1;HPM_P2
2022/12/25 00:01:51;;;;;;;;;;;8.20;99.90;;;7.54;100.00;97388.75;5047407;28;19921;-56
2022/12/25 00:04:16;;;;;;;;;;;8.20;99.90;;;7.56;100.00;97382.56;5051201;28;19956;-56
2022/12/25 00:06:42;;;;;;;;;;;8.20;99.90;;;7.56;100.00;97385.19;5051411;28;20299;-56
2022/12/25 00:09:07;;;;;;;;;;;8.20;99.90;;;7.60;100.00;97386.81;5038364;28;19984;-57
2022/12/25 00:11:33;;;;;;;;;;;8.20;99.90;;;7.59;100.00;97387.72;5043957;28;20364;-55
2022/12/25 00:13:59;;;;;;;;;;;8.30;99.90;;;7.62;100.00;97392.03;5047516;28;19923;-57
2022/12/25 00:16:25;;;;;;;;;;;8.30;99.90;;;7.68;100.00;97389.25;5051266;28;20394;-57
2022/12/25 00:18:51;;;;;;;;;;;8.30;99.90;;;7.67;100.00;97390.16;5045198;28;20007;-57
2022/12/25 00:21:18;;;;;;;;;;;8.30;99.90;;;7.71;100.00;97391.78;5054633;28;20019;-57
2022/12/25 00:23:44;;;;;;;;;;;8.30;99.90;;;7.72;100.00;97397.94;5023544;28;20056;-57
2022/12/25 00:26:13;;;;;;;;;;;8.30;99.90;;;7.74;100.00;97388.25;5044915;28;21636;-57
2022/12/25 00:28:38;;;;;;;;;;;8.40;99.90;;;7.72;100.00;97382.19;5048881;28;19916;-57
2022/12/25 00:31:06;;;;;;;;;;;8.40;99.90;;;7.74;100.00;97383.84;5042919;28;20176;-57
2022/12/25 00:33:34;;;;;;;;;;;8.40;99.90;;;7.76;100.00;97389.91;5047712;28;19917;-57
2022/12/25 00:36:00;;;;;;;;;;;8.40;99.90;;;7.78;100.00;97382.00;5009866;28;20399;-55
2022/12/25 00:38:26;;;;;;;;;;;8.40;99.90;;;7.79;100.00;97384.59;5051321;28;20011;-55
2022/12/25 00:40:52;;;;;;;;;;;8.40;99.90;;;7.77;100.00;97378.53;5052924;28;19935;-56
2022/12/25 00:43:18;;;;;;;;;;;8.40;99.90;;;7.79;100.00;97392.47;5044075;28;19964;-57
2022/12/25 00:45:53;;;;;;;;;;;8.40;99.90;;;7.80;100.00;97378.41;5045955;28;19978;-55
2022/12/25 00:48:18;;;;;;;;;;;8.40;99.90;;;7.83;100.00;97390.63;5046867;28;19917;-56
2022/12/25 00:50:44;;;;;;;;;;;8.50;99.90;;;7.83;100.00;97395.88;5048995;28;19924;-56
2022/12/25 00:53:09;;;;;;;;;;;8.50;99.90;;;7.83;100.00;97388.84;5048540;28;19955;-55
2022/12/25 00:55:35;;;;;;;;;;;8.50;99.90;;;7.86;100.00;97392.28;5049599;28;19935;-55
2022/12/25 00:58:01;;;;;;;;;;;8.50;99.90;;;7.85;100.00;97396.69;5043368;28;20321;-55
2022/12/25 01:00:26;;;;;;;;;;;8.50;99.90;;;7.85;100.00;97388.81;5048856;28;20419;-56
2022/12/25 01:02:52;;;;;;;;;;;8.50;99.90;;;7.87;100.00;97387.00;5045079;28;19925;-57
2022/12/25 01:05:18;;;;;;;;;;;8.50;99.90;;;7.88;100.00;97385.22;5049790;28;19923;-57
2022/12/25 01:07:43;;;;;;;;;;;8.50;99.90;;;7.85;100.00;97380.94;5045538;28;19931;-55
2022/12/25 01:10:21;;;;;;;;;;;8.50;99.90;;;7.88;100.00;97385.22;5051405;28;20203;-55
2022/12/25 01:12:48;;;;;;;;;;;8.50;99.90;;;7.89;100.00;97381.72;5048178;28;20088;-56
2022/12/25 01:15:13;;;;;;;;;;;8.50;99.90;;;7.90;100.00;97379.06;5048539;28;19920;-54
2022/12/25 01:17:40;;;;;;;;;;;8.50;99.90;;;7.92;100.00;97390.38;5048847;28;19925;-54
2022/12/25 01:20:08;;;;;;;;;;;8.50;99.90;;;7.95;100.00;97392.03;5049960;28;19978;-54
2022/12/25 01:22:33;;;;;;;;;;;8.50;99.90;;;7.97;100.00;97398.16;5045087;28;19924;-55
2022/12/25 01:24:59;;;;;;;;;;;8.60;99.90;;;7.96;100.00;97399.88;5044992;28;19990;-55
2022/12/25 01:27:25;;;;;;;;;;;8.60;99.90;;;7.98;100.00;97394.59;5050644;28;19924;-56
2022/12/25 01:29:50;;;;;;;;;;;8.60;99.90;;;7.98;100.00;97400.72;5045836;28;19956;-55
2022/12/25 01:32:16;;;;;;;;;;;8.60;99.90;;;7.98;100.00;97394.59;5044863;28;20373;-57
2022/12/25 01:34:41;;;;;;;;;;;8.60;99.90;;;7.99;100.00;97404.22;5043325;28;20027;-57
2022/12/25 01:37:07;;;;;;;;;;;8.60;99.90;;;7.98;100.00;97405.09;5039872;28;19928;-56
2022/12/25 01:39:33;;;;;;;;;;;8.60;99.90;;;7.94;100.00;97404.31;5045866;28;19952;-56
2022/12/25 01:41:58;;;;;;;;;;;8.60;99.90;;;7.99;100.00;97414.72;5045545;28;20070;-57
2022/12/25 01:44:36;;;;;;;;;;;8.60;99.90;;;7.98;100.00;97419.09;5036255;28;20486;-56
2022/12/25 01:47:03;;;;;;;;;;;8.60;99.90;;;7.99;100.00;97420.81;5037125;28;19925;-56
2022/12/25 01:49:30;;;;;;;;;;;8.60;99.90;;;7.99;100.00;97423.44;5040337;28;19932;-56
2022/12/25 01:52:00;;;;;;;;;;;8.60;99.90;;;8.00;100.00;97419.06;5023110;28;20373;-57
2022/12/25 01:54:31;;;;;;;;;;;8.60;99.90;;;8.00;100.00;97414.69;5021068;28;20031;-56
2022/12/25 01:57:01;;;;;;;;;;;8.60;99.90;;;7.92;100.00;97381.66;5032623;28;19932;-57
2022/12/25 01:59:28;;;;;;;;;;;8.60;99.90;;;8.03;100.00;97405.84;5019768;28;20007;-56
2022/12/25 02:01:54;;;;;;;;;;;8.60;99.90;;;8.01;100.00;97400.63;5026453;22;19933;-40
2022/12/25 02:04:39;;;;;;;;;;;8.60;99.90;;;8.01;100.00;97397.16;5012177;28;19944;-40
2022/12/25 02:07:14;;;;;;;;;;;8.60;99.90;;;8.02;100.00;97407.63;5013687;28;19925;-41
2022/12/25 02:09:40;;;;;;;;;;;8.60;99.90;;;8.02;100.00;97398.88;5009862;28;19919;-40
2022/12/25 02:12:07;;;;;;;;;;;8.60;99.90;;;8.02;100.00;97401.47;5001193;28;20016;-42
2022/12/25 02:14:34;;;;;;;;;;;8.60;99.90;;;8.03;100.00;97397.97;4992473;28;20004;-42
2022/12/25 02:17:24;;;;;;;;;;;8.60;99.90;;;8.06;100.00;97386.50;4992000;28;19928;-42
2022/12/25 02:20:13;;;;;;;;;;;8.60;99.90;;;8.06;100.00;97383.88;5002619;28;19918;-42
2022/12/25 02:22:54;;;;;;;;;;;8.60;99.90;;;8.05;100.00;97397.94;4985639;28;20028;-42
2022/12/25 02:25:51;;;;;;;;;;;8.70;99.90;;;8.02;100.00;97397.13;4987457;28;19921;-40
2022/12/25 02:28:34;;;;;;;;;;;8.60;99.90;;;7.99;100.00;97389.31;4989211;28;19922;-40
2022/12/25 02:31:04;;;;;;;;;;;8.60;99.90;;;8.00;100.00;97385.81;4982248;28;20373;-39
2022/12/25 02:36:22;;;;;;;;;;;8.60;99.90;;;7.99;100.00;97391.09;4988430;28;19932;-39
2022/12/25 02:41:37;;;;;;;;;;;8.60;99.90;;;7.89;100.00;97377.31;4983189;28;20430;-40
2022/12/25 03:12:01;;;;;;;;;;;8.60;99.90;;;7.97;100.00;97369.25;4989694;28;19987;-40
2022/12/25 03:17:11;;;;;;;;;;;8.60;99.90;;;8.01;100.00;97378.78;4989245;28;20423;-39
2022/12/25 03:28:05;;;;;;;;;;;8.60;99.90;;;8.03;100.00;97361.19;4995013;28;19933;-40
2022/12/25 03:31:12;;;;;;;;;;;8.60;99.90;;;8.00;100.00;97358.66;4980836;28;19922;-39
2022/12/25 04:37:21;;;;;;;;;;;8.20;99.90;;;7.56;100.00;97324.81;4996243;28;19923;-41
2022/12/25 04:39:47;;;;;;;;;;;8.20;99.90;;;7.57;100.00;97325.66;4998100;28;19921;-40
2022/12/25 04:42:13;;;;;;;;;;;8.20;99.90;;;7.62;100.00;97327.25;4992547;28;20451;-40
2022/12/25 04:44:38;;;;;;;;;;;8.30;99.90;;;7.62;100.00;97326.41;4993167;28;19980;-39
2022/12/25 04:47:04;;;;;;;;;;;8.30;99.90;;;7.62;100.00;97321.16;4994460;28;19926;-40
2022/12/25 04:49:29;;;;;;;;;;;8.30;99.90;;;7.69;100.00;97324.50;4996274;28;19921;-40
2022/12/25 04:51:55;;;;;;;;;;;8.30;99.90;;;7.73;100.00;97320.88;4982384;28;20345;-40
2022/12/25 04:54:21;;;;;;;;;;;8.30;99.90;;;7.73;100.00;97324.34;4984316;28;19922;-41
2022/12/25 04:56:46;;;;;;;;;;;8.40;99.90;;;7.70;100.00;97313.06;4981335;28;20493;-42
2022/12/25 04:59:12;;;;;;;;;;;8.40;99.90;;;7.76;100.00;97310.31;4979343;28;20027;-41
2022/12/25 05:01:37;;;;;;;;;;;8.40;99.90;;;7.75;100.00;97309.44;4978409;28;19925;-41
2022/12/25 05:04:03;;;;;;;;;;;8.40;99.90;;;7.61;100.00;97286.19;4982544;28;19921;-44
2022/12/25 05:06:29;;;;;;;;;;;8.40;99.90;;;7.68;100.00;97307.91;4982400;28;20421;-41
2022/12/25 05:08:54;;;;;;;;;;;8.40;99.90;;;7.63;100.00;97302.75;4981788;28;19921;-42
2022/12/25 05:11:20;;;;;;;;;;;8.30;99.90;;;7.63;100.00;97299.28;4986351;28;20006;-42
2022/12/25 05:13:46;;;;;;;;;;;8.30;99.90;;;7.60;100.00;97294.94;4979676;28;20004;-41
2022/12/25 05:16:17;;;;;;;;;;;8.30;99.90;;;7.65;100.00;97292.22;4980397;28;20249;-43
2022/12/25 05:18:43;;;;;;;;;;;8.30;99.90;;;7.64;100.00;97296.63;4980916;28;19917;-41
2022/12/25 05:21:10;;;;;;;;;;;8.30;99.90;;;7.64;100.00;97295.72;4979436;28;19933;-40
2022/12/25 05:23:37;;;;;;;;;;;8.30;99.90;;;7.61;100.00;97301.94;4980387;28;19925;-41
2022/12/25 05:26:06;;;;;;;;;;;8.30;99.90;;;7.62;100.00;97300.16;4985042;28;19921;-42
2022/12/25 05:28:35;;;;;;;;;;;8.30;99.90;;;7.65;100.00;97302.72;4982434;28;19925;-43
2022/12/25 05:31:01;;;;;;;;;;;8.30;99.90;;;7.69;100.00;97298.25;4980626;28;19948;-42
2022/12/25 05:33:27;;;;;;;;;;;8.30;99.90;;;7.67;100.00;97297.44;4980164;28;20366;-43
2022/12/25 05:35:52;;;;;;;;;;;8.30;99.90;;;7.64;100.00;97290.47;4980850;28;20019;-41
2022/12/25 05:38:18;;;;;;;;;;;8.30;99.90;;;7.65;100.00;97300.09;4981234;28;19924;-43
2022/12/25 05:40:44;;;;;;;;;;;8.30;99.90;;;7.64;100.00;97303.59;4982195;28;19921;-41
2022/12/25 05:43:09;;;;;;;;;;;8.30;99.90;;;7.69;100.00;97301.72;4978521;28;20203;-41
2022/12/25 05:45:35;;;;;;;;;;;8.30;99.90;;;7.70;100.00;97306.09;4980256;28;19933;-41
2022/12/25 05:48:01;;;;;;;;;;;8.30;99.90;;;7.73;100.00;97292.84;4981770;28;19917;-44
2022/12/25 05:50:26;;;;;;;;;;;8.40;99.90;;;7.72;100.00;97280.66;4984852;28;20019;-42
2022/12/25 05:52:52;;;;;;;;;;;8.40;99.90;;;7.73;100.00;97276.25;4988131;28;20283;-42
2022/12/25 05:55:17;;;;;;;;;;;8.40;99.90;;;7.72;100.00;97270.16;4991652;28;20023;-42
2022/12/25 05:57:43;;;;;;;;;;;8.30;99.90;;;7.68;100.00;97272.88;4979314;28;21483;-42
2022/12/25 06:00:09;;;;;;;;;;;8.30;99.90;;;7.69;100.00;97272.00;4989766;28;20453;-41
2022/12/25 06:02:35;;;;;;;;;;;8.40;99.90;;;7.72;100.00;97278.03;4978774;28;23176;-41
2022/12/25 06:05:02;;;;;;;;;;;8.40;99.90;;;7.73;100.00;97261.34;4987808;28;19932;-42
2022/12/25 06:07:27;;;;;;;;;;;8.40;99.90;;;7.73;100.00;97257.88;4981889;28;20075;-41
2022/12/25 06:09:53;;;;;;;;;;;8.40;99.90;;;7.73;100.00;97258.72;4991618;28;19925;-43
2022/12/25 06:12:18;;;;;;;;;;;8.40;99.90;;;7.72;100.00;97264.91;4982298;28;20258;-41
2022/12/25 06:14:44;;;;;;;;;;;8.40;99.90;;;7.72;100.00;97266.69;4987009;28;20024;-44
2022/12/25 06:17:10;;;;;;;;;;;8.40;99.90;;;7.75;100.00;97261.31;4990184;28;20018;-41
2022/12/25 06:19:36;;;;;;;;;;;8.40;99.90;;;7.75;100.00;97251.69;4990950;28;19925;-42
2022/12/25 06:22:01;;;;;;;;;;;8.40;99.90;;;7.72;100.00;97243.91;4989993;28;20072;-41
2022/12/25 06:24:27;;;;;;;;;;;8.40;99.90;;;7.74;100.00;97252.59;4994299;28;21096;-42
2022/12/25 06:26:53;;;;;;;;;;;8.40;99.90;;;7.79;100.00;97258.56;4988419;28;19925;-41
2022/12/25 06:29:18;;;;;;;;;;;8.40;99.90;;;7.80;100.00;97259.44;4990999;28;19999;-41
2022/12/25 06:31:44;;;;;;;;;;;8.50;99.90;;;7.77;100.00;97242.00;4985049;28;19925;-42
2022/12/25 06:34:10;;;;;;;;;;;8.50;99.90;;;7.82;100.00;97244.47;4990558;28;19960;-42
2022/12/25 06:36:36;;;;;;;;;;;8.50;99.90;;;7.86;100.00;97250.50;4987478;28;19925;-43
2022/12/25 06:39:02;;;;;;;;;;;8.50;99.90;;;7.85;100.00;97249.66;4988653;28;20051;-41
2022/12/25 06:41:28;;;;;;;;;;;8.50;99.90;;;7.88;100.00;97248.69;4987009;28;20385;-40
2022/12/25 06:43:56;;;;;;;;;;;8.50;99.90;;;7.91;100.00;97246.84;4983349;28;19925;-42
2022/12/25 06:46:23;;;;;;;;;;;8.50;99.90;;;7.76;100.00;97226.28;4987307;28;20016;-42
2022/12/25 06:48:49;;;;;;;;;;;8.50;99.90;;;7.90;100.00;97255.66;4991325;28;19917;-41
2022/12/25 06:51:16;;;;;;;;;;;8.60;99.90;;;7.91;100.00;97254.72;4989376;28;19935;-42
2022/12/25 06:53:42;;;;;;;;;;;8.60;99.90;;;7.93;100.00;97265.19;4987142;28;19918;-41
2022/12/25 06:56:15;;;;;;;;;;;8.60;99.90;;;7.95;100.00;97269.50;4989031;28;19984;-41
2022/12/25 06:58:48;;;;;;;;;;;8.60;99.90;;;7.99;100.00;97270.28;4987453;28;19917;-41
2022/12/25 07:01:18;;;;;;;;;;;8.60;99.90;;;8.00;100.00;97271.97;4982559;28;19925;-40
2022/12/25 07:03:45;;;;;;;;;;;8.60;99.90;;;8.01;100.00;97265.84;4987888;28;19917;-41
2022/12/25 07:06:10;;;;;;;;;;;8.60;99.90;;;8.02;100.00;97264.91;4986771;28;19947;-41
2022/12/25 07:08:36;;;;;;;;;;;8.60;99.90;;;8.02;100.00;97270.16;4983557;28;19921;-41
2022/12/25 07:11:02;;;;;;;;;;;8.60;99.90;;;7.95;100.00;97258.13;4998211;28;19925;-41
2022/12/25 07:13:27;;;;;;;;;;;8.60;99.90;;;8.03;100.00;97271.91;4984228;28;19973;-41
2022/12/25 07:16:01;;;;;;;;;;;8.60;99.90;;;8.03;100.00;97283.25;4982814;28;19933;-40
2022/12/25 07:18:27;;;;;;;;;;;8.70;99.90;;;8.03;100.00;97278.00;4984874;28;19929;-40
2022/12/25 07:20:54;;;;;;;;;;;8.60;99.90;;;8.01;100.00;97274.56;4989933;28;22621;-41
2022/12/25 07:23:21;;;;;;;;;;;8.70;99.90;;;8.01;100.00;97258.81;4969753;28;20244;-41
2022/12/25 07:25:56;;;;;;;;;;;8.70;99.90;;;8.10;100.00;97267.34;4973722;28;19980;-40
2022/12/25 07:28:22;;;;;;;;;;;8.70;99.90;;;8.12;100.00;97260.28;4978759;28;19932;-41
2022/12/25 07:30:48;;;;;;;;;;;8.70;99.90;;;8.13;100.00;97260.25;4975333;28;19957;-41
2022/12/25 07:33:13;;;;;;;;;;;8.70;99.90;;;8.17;100.00;97246.09;4977219;28;19921;-41
2022/12/25 07:35:39;;;;;;;;;;;8.70;99.90;;;8.14;100.00;97253.22;4976194;28;19969;-40
2022/12/25 07:38:05;;;;;;;;;;;8.80;99.90;;;8.08;100.00;97241.13;4974884;28;20310;-40
2022/12/25 07:40:30;;;;;;;;;;;8.80;99.90;;;8.08;100.00;97220.09;4974759;28;20575;-40
2022/12/25 07:42:56;;;;;;;;;;;8.80;99.90;;;8.21;100.00;97228.47;4976604;28;19917;-40
2022/12/25 07:45:21;;;;;;;;;;;8.80;99.90;;;8.16;100.00;97207.59;4981642;28;19925;-40
2022/12/25 07:47:47;;;;;;;;;;;8.80;99.90;;;8.14;100.00;97201.53;4984170;28;20079;-40
2022/12/25 07:50:12;;;;;;;;;;;8.80;99.90;;;8.22;100.00;97198.69;4982072;28;20432;-40
2022/12/25 07:52:38;;;;;;;;;;;8.80;99.90;;;8.21;100.00;97194.31;4978114;28;20137;-41
2022/12/25 07:55:04;;;;;;;;;;;8.90;99.90;;;8.15;100.00;97205.88;4981413;28;20094;-40
2022/12/25 07:57:30;;;;;;;;;;;8.80;99.90;;;8.18;100.00;97218.94;4980537;28;20023;-42
2022/12/25 07:59:55;;;;;;;;;;;8.80;99.90;;;8.18;100.00;97221.56;4984193;28;19929;-43
2022/12/25 08:02:27;;;;;;;;;;;8.80;99.90;;;8.18;100.00;97228.56;5007913;22;20059;-38
2022/12/25 08:04:56;;;;;;;;;;;8.90;99.90;;;8.14;100.00;97234.81;5018322;28;19925;-38
2022/12/25 08:07:22;;;;;;;;;;;8.80;99.90;;;8.15;100.00;97240.03;5025001;28;19963;-38
2022/12/25 08:09:47;;;;;;;;;;;8.80;99.90;;;8.14;100.00;97250.59;5030418;28;20611;-38
2022/12/25 08:12:13;;;;;;;;;;;8.70;99.90;;;8.05;100.00;97250.84;5029200;28;19923;-38
2022/12/25 08:14:39;;;;;;;;;;;8.70;99.90;;;7.97;100.00;97264.22;5045065;28;19932;-38
2022/12/25 08:17:05;;;;;;;;;;;8.60;99.90;;;7.89;100.00;97263.56;5045280;28;20010;-38
2022/12/25 08:19:30;;;;;;;;;;;8.50;99.90;;;7.81;100.00;97263.78;5047708;28;19920;-38
2022/12/25 08:21:56;;;;;;;;;;;8.40;99.90;;;7.79;100.00;97262.97;5047213;28;19959;-38
2022/12/25 08:24:21;;;;;;;;;;;8.40;99.90;;;7.79;100.00;97255.09;5047465;28;19923;-38
2022/12/25 08:26:47;;;;;;;;;;;8.40;99.90;;;7.77;100.00;97257.75;5049815;28;20346;-38
2022/12/25 08:29:13;;;;;;;;;;;8.40;99.90;;;7.85;100.00;97260.16;5048241;28;19963;-38
2022/12/25 08:31:40;;;;;;;;;;;8.50;99.90;;;7.91;100.00;97256.50;5037711;28;20280;-38
2022/12/25 08:34:06;;;;;;;;;;;8.50;99.90;;;7.99;100.00;97259.78;5042290;28;19920;-38
2022/12/25 08:36:32;;;;;;;;;;;8.60;99.90;;;8.13;100.00;97256.72;5051292;28;19927;-38
2022/12/25 08:38:57;;;;;;;;;;;8.70;99.90;;;8.25;100.00;97256.38;5046515;28;20463;-38
2022/12/25 08:41:23;;;;;;;;;;;8.80;99.90;;;8.35;100.00;97260.44;5043308;28;20546;-38
2022/12/25 08:43:48;;;;;;;;;;;8.90;99.90;;;8.21;100.00;97231.09;5049237;28;19979;-38
2022/12/25 08:46:14;;;;;;;;;;;9.00;99.90;;;8.29;100.00;97244.00;5048159;28;19943;-38
2022/12/25 08:48:41;;;;;;;;;;;9.00;99.90;;;8.40;100.00;97257.69;5051258;28;19932;-38
2022/12/25 08:51:13;;;;;;;;;;;9.00;99.90;;;8.32;100.00;97246.53;5037486;28;20001;-38
2022/12/25 08:53:40;;;;;;;;;;;9.00;99.90;;;8.22;100.00;97230.22;5040047;28;19921;-38
2022/12/25 08:56:06;;;;;;;;;;;8.90;99.90;;;8.26;100.00;97246.75;5037593;28;20403;-38
2022/12/25 08:58:32;;;;;;;;;;;8.90;99.90;;;8.25;100.00;97250.25;5046113;28;20463;-38
2022/12/25 09:00:58;;;;;;;;;;;8.80;99.90;;;8.19;100.00;97238.16;5038705;28;19931;-38
2022/12/25 09:03:24;;;;;;;;;;;8.80;99.90;;;8.13;100.00;97222.56;5040623;28;20022;-38
2022/12/25 09:05:50;;;;;;;;;;;8.80;99.90;;;8.08;100.00;97220.09;5053045;28;19916;-38
2022/12/25 09:08:16;;;;;;;;;;;8.70;99.90;;;8.07;100.00;97205.25;5028617;28;20468;-38
2022/12/25 09:10:41;;;;;;;;;;;8.70;99.90;;;8.01;100.00;97200.19;5034067;28;20003;-38
2022/12/25 09:13:07;;;;;;;;;;;8.70;99.90;;;8.00;100.00;97195.81;5036570;28;19917;-38
2022/12/25 09:15:33;;;;;;;;;;;8.60;99.90;;;8.01;100.00;97195.78;5042305;28;20043;-38
2022/12/25 09:18:25;;;;;;;;;;;8.60;99.90;;;8.02;100.00;97201.88;5041626;28;20003;-38
2022/12/25 09:21:04;;;;;;;;;;;8.60;99.90;;;8.01;100.00;97200.19;5037562;28;19928;-38
2022/12/25 09:23:30;;;;;;;;;;;8.70;99.90;;;8.06;100.00;97206.16;5040204;28;19916;-38
2022/12/25 09:26:00;;;;;;;;;;;8.70;99.90;;;8.09;100.00;97219.19;5040979;28;19968;-38
2022/12/25 09:28:26;;;;;;;;;;;8.70;99.90;;;8.13;100.00;97214.69;5028994;28;20471;-38
2022/12/25 09:30:52;;;;;;;;;;;8.80;99.90;;;8.17;100.00;97216.34;5037712;28;20124;-38
2022/12/25 09:33:18;;;;;;;;;;;8.80;99.90;;;8.19;100.00;97215.38;5044867;28;20288;-38
2022/12/25 09:35:56;;;;;;;;;;;8.80;99.90;;;8.22;100.00;97225.81;5029341;28;19956;-38
2022/12/25 09:38:21;;;;;;;;;;;8.80;99.90;;;8.25;100.00;97222.22;5038349;28;19920;-38
2022/12/25 09:40:47;;;;;;;;;;;8.90;99.90;;;8.25;100.00;97209.06;5047152;28;20287;-38
2022/12/25 09:43:16;;;;;;;;;;;8.90;99.90;;;8.31;100.00;97219.41;5044844;28;19924;-38
2022/12/25 09:45:42;;;;;;;;;;;8.90;99.90;;;8.33;100.00;97219.38;5045398;28;19920;-38
2022/12/25 09:48:11;;;;;;;;;;;9.00;99.90;;;8.37;100.00;97224.47;5031978;28;19916;-38
2022/12/25 09:50:46;;;;;;;;;;;9.00;99.90;;;8.40;100.00;97224.38;5041812;28;19974;-38
2022/12/25 09:53:18;;;;;;;;;;;9.00;99.90;;;8.43;100.00;97223.44;5040298;28;19943;-38
2022/12/25 09:56:05;;;;;;;;;;;9.10;99.90;;;8.47;100.00;97224.22;5041318;28;20352;-38
2022/12/25 09:58:32;;;;;;;;;;;9.10;99.90;;;8.52;100.00;97217.03;5043724;28;19925;-38
2022/12/25 10:01:08;;;;;;;;;;;9.10;99.90;;;8.53;100.00;97208.25;5016962;28;19921;-38
2022/12/25 10:03:44;;;;;;;;;;;9.20;99.90;;;8.60;100.00;97223.78;5020138;28;19994;-38
2022/12/25 10:06:19;;;;;;;;;;;9.20;99.90;;;8.61;100.00;97200.97;5023817;28;19916;-38
2022/12/25 10:09:19;;;;;;;;;;;9.30;99.90;;;8.81;100.00;97215.25;5037718;28;19959;-38
2022/12/25 10:11:58;;;;;;;;;;;9.40;99.90;;;8.89;100.00;97194.81;5043079;28;20415;-38
2022/12/25 10:14:49;;;;;;;;;;;9.50;99.90;;;8.90;100.00;97197.41;5050433;28;19912;-38
2022/12/25 10:17:43;;;;;;;;;;;9.60;99.90;;;8.96;100.00;97185.81;5020268;28;19924;-38
2022/12/25 10:20:20;;;;;;;;;;;9.60;99.90;;;9.01;100.00;97189.16;5028309;28;20205;-38
2022/12/25 10:22:51;;;;;;;;;;;9.70;99.90;;;9.07;100.00;97190.72;5028798;28;20513;-39
2022/12/25 10:25:21;;;;;;;;;;;9.70;99.90;;;9.10;100.00;97188.84;5037549;28;20346;-38
2022/12/25 10:27:50;;;;;;;;;;;9.70;99.90;;;9.15;100.00;97191.28;5014816;28;19927;-38
2022/12/25 10:30:21;;;;;;;;;;;9.80;99.90;;;9.26;100.00;97185.66;5025145;28;19933;-38
2022/12/25 10:32:47;;;;;;;;;;;9.80;99.90;;;9.34;100.00;97181.00;5040651;28;19925;-38
2022/12/25 10:35:15;;;;;;;;;;;9.90;99.90;;;9.44;100.00;97179.75;5019266;28;20287;-38
2022/12/25 10:37:41;;;;;;;;;;;10.00;99.90;;;9.57;100.00;97171.44;5036549;28;19935;-38
2022/12/25 10:40:26;;;;;;;;;;;10.10;99.90;;;9.73;100.00;97162.03;5025531;28;19917;-38
2022/12/25 10:42:58;;;;;;;;;;;10.30;99.90;;;9.90;100.00;97162.25;5034004;28;20019;-38
2022/12/25 10:45:23;;;;;;;;;;;10.50;99.90;;;10.02;100.00;97153.03;5021010;28;19925;-38
2022/12/25 10:47:49;;;;;;;;;;;10.60;99.90;;;10.21;100.00;97150.53;5039908;28;19928;-39
2022/12/25 10:50:22;;;;;;;;;;;10.70;99.90;;;10.32;100.00;97134.34;5022537;28;19925;-39
2022/12/25 10:53:08;;;;;;;;;;;10.90;99.90;;;10.49;100.00;97145.03;5029268;28;20300;-39
2022/12/25 10:55:33;;;;;;;;;;;11.00;99.90;;;10.58;100.00;97130.63;5044842;28;19921;-39
2022/12/25 10:58:00;;;;;;;;;;;11.20;99.90;;;10.65;100.00;97133.88;5041992;28;20311;-39
2022/12/25 11:00:30;;;;;;;;;;;11.20;99.90;;;10.72;100.00;97145.03;5044490;28;19935;-39
2022/12/25 11:02:56;;;;;;;;;;;11.30;99.90;;;10.73;100.00;97134.41;5043294;28;19974;-39
2022/12/25 11:05:30;;;;;;;;;;;11.30;99.90;;;10.73;100.00;97121.22;5030927;28;20059;-39
2022/12/25 11:07:57;;;;;;;;;;;11.30;99.90;;;10.79;100.00;97131.50;5030998;28;20007;-40
2022/12/25 11:10:24;;;;;;;;;;;11.30;99.90;;;10.79;100.00;97118.31;5030125;28;19925;-40
2022/12/25 11:12:51;;;;;;;;;;;11.40;99.90;;;10.85;100.00;97118.03;5037766;28;19924;-39
2022/12/25 11:15:34;;;;;;;;;;;11.40;99.90;;;10.92;100.00;97125.72;5016731;28;19928;-39
2022/12/25 11:18:00;;;;;;;;;;;11.50;99.90;;;10.92;100.00;97123.94;5037165;28;19920;-40
2022/12/25 11:20:26;;;;;;;;;;;11.40;99.90;;;10.96;100.00;97122.00;5034941;28;20284;-39
2022/12/25 11:22:51;;;;;;;;;;;11.50;99.90;;;11.00;100.00;97120.94;5035744;28;20010;-39
2022/12/25 11:25:22;;;;;;;;;;;11.50;99.90;;;11.07;100.00;97122.41;5046241;28;19917;-39
2022/12/25 11:28:03;;;;;;;;;;;11.60;99.90;;;11.18;100.00;97109.63;5039954;28;20306;-39
2022/12/25 11:30:30;;;;;;;;;;;11.70;99.90;;;11.32;100.00;97108.13;5033195;28;19979;-39
2022/12/25 11:32:58;;;;;;;;;;;11.90;99.90;;;11.41;100.00;97105.06;5014735;28;19974;-40
2022/12/25 11:35:28;;;;;;;;;;;11.90;99.90;;;11.56;100.00;97088.56;5024857;28;19921;-39
2022/12/25 11:37:53;;;;;;;;;;;12.10;99.90;;;11.64;100.00;97091.69;5023592;28;19925;-39
2022/12/25 11:40:26;;;;;;;;;;;12.20;99.90;;;11.65;100.00;97093.41;5043385;28;19986;-39
2022/12/25 11:42:56;;;;;;;;;;;12.20;99.90;;;11.74;100.00;97099.19;5035858;28;20016;-39
2022/12/25 11:45:26;;;;;;;;;;;12.30;99.90;;;11.83;100.00;97091.69;5045238;28;19931;-40
2022/12/25 11:47:55;;;;;;;;;;;12.40;99.90;;;11.96;100.00;97084.06;5040518;28;19916;-39
2022/12/25 11:50:29;;;;;;;;;;;12.50;99.90;;;12.08;100.00;97087.03;5026079;28;19972;-39
2022/12/25 11:52:59;;;;;;;;;;;12.60;99.90;;;12.26;100.00;97077.38;5034604;28;19917;-39
2022/12/25 11:55:34;;;;;;;;;;;12.80;99.90;;;12.39;100.00;97079.34;5021535;28;20460;-40
2022/12/25 11:58:03;;;;;;;;;;;12.90;99.90;;;12.56;100.00;97080.28;5039323;28;19926;-40
2022/12/25 12:00:29;;;;;;;;;;;13.10;99.90;;;12.67;100.00;97064.75;4999931;28;20249;-40
2022/12/25 12:03:15;;;;;;;;;;;13.20;99.90;;;12.80;100.00;97063.19;5010590;28;20038;-40
2022/12/25 12:05:49;;;;;;;;;;;13.30;99.90;;;12.93;100.00;97067.84;5002026;28;19970;-40
2022/12/25 12:08:15;;;;;;;;;;;13.50;99.90;;;12.93;100.00;97054.63;5008307;28;20453;-41
2022/12/25 12:11:14;;;;;;;;;;;13.50;99.90;;;12.98;100.00;97044.66;5027867;28;20059;-39
2022/12/25 12:14:04;;;;;;;;;;;13.50;99.90;;;12.96;100.00;97036.78;5020558;28;19923;-39
2022/12/25 12:16:30;;;;;;;;;;;13.50;99.90;;;12.98;100.00;97042.00;5026239;28;19921;-39
2022/12/25 12:18:56;;;;;;;;;;;13.50;99.90;;;12.99;100.00;97027.81;5041089;28;19944;-39
2022/12/25 12:21:23;;;;;;;;;;;13.50;99.90;;;13.06;100.00;97026.56;5043717;28;19981;-39
2022/12/25 12:24:00;;;;;;;;;;;13.60;99.90;;;13.05;100.00;97024.00;5027955;28;19927;-39
2022/12/25 12:26:28;;;;;;;;;;;13.60;99.90;;;13.00;100.00;97016.31;5043239;28;19916;-39
2022/12/25 12:28:57;;;;;;;;;;;13.50;99.90;;;12.95;100.00;97028.91;5042893;28;19923;-39
2022/12/25 12:31:23;;;;;;;;;;;13.50;99.90;;;12.89;100.00;97030.09;5022113;28;19966;-39
2022/12/25 12:33:58;;;;;;;;;;;13.40;99.90;;;12.75;100.00;97017.56;5044383;28;19963;-40
2022/12/25 12:36:25;;;;;;;;;;;13.30;99.90;;;12.68;100.00;97032.06;5044950;28;21452;-40
2022/12/25 12:38:52;;;;;;;;;;;13.20;99.90;;;12.56;100.00;97030.03;5043376;28;19931;-40
2022/12/25 12:41:19;;;;;;;;;;;13.00;99.90;;;12.49;100.00;97026.00;5032363;28;19950;-39
2022/12/25 12:43:51;;;;;;;;;;;13.00;99.90;;;12.37;100.00;97027.47;5046833;28;19917;-40
2022/12/25 12:46:18;;;;;;;;;;;12.90;99.90;;;12.30;100.00;97034.84;5026526;28;19920;-40
2022/12/25 12:48:46;;;;;;;;;;;12.80;99.90;;;12.33;100.00;97031.22;5048439;28;20521;-39
2022/12/25 12:51:33;;;;;;;;;;;12.80;99.90;;;12.35;100.00;97032.84;5047054;28;19928;-39
2022/12/25 12:54:22;;;;;;;;;;;12.90;99.90;;;12.56;100.00;97035.31;5041567;28;19929;-39
2022/12/25 12:56:55;;;;;;;;;;;13.00;99.90;;;12.57;100.00;97023.81;5040891;28;19985;-39
2022/12/25 12:59:20;;;;;;;;;;;13.10;99.90;;;12.62;100.00;97034.19;5040926;28;19924;-39
2022/12/25 13:02:04;;;;;;;;;;;13.10;99.90;;;12.59;100.00;97022.78;5023050;28;20653;-39
2022/12/25 13:04:43;;;;;;;;;;;13.10;99.90;;;12.52;100.00;97021.41;5009506;28;19920;-40
2022/12/25 13:07:31;;;;;;;;;;;13.00;99.90;;;12.47;100.00;97017.28;5027051;28;19924;-40
2022/12/25 13:10:03;;;;;;;;;;;13.00;99.90;;;12.39;100.00;97013.22;5031611;28;19931;-40
2022/12/25 13:12:29;;;;;;;;;;;12.90;99.90;;;12.36;100.00;97005.47;5007964;28;19982;-40
2022/12/25 13:14:54;;;;;;;;;;;12.80;99.90;;;12.34;100.00;97002.03;5013178;28;20428;-40
2022/12/25 13:17:22;;;;;;;;;;;12.80;99.90;;;12.31;100.00;97006.63;5035126;28;19925;-40
2022/12/25 13:19:54;;;;;;;;;;;12.80;99.90;;;12.27;100.00;97003.28;5037026;28;19949;-39